Terminal Aerodrome Forecast
Issued by NWS Charleston, WV

Home | Current Version | Previous Version | Text Only | Print | Product List | Glossary On
Versions: 1 2 3 4 5 6 7 8 9 10 11 12 13 14 15 16 17 18 19 20 21
598
FTUS41 KRLX 260248 AAA
TAFPKB
TAF AMD
KPKB 260248Z 2603/2624 VRB03KT P6SM BKN200
     FM260700 VRB02KT P6SM BKN050
     FM261600 20006KT P6SM SCT045=

USA.gov is the U.S. government's official web portal to all federal, state and local government web resources and services.